Time;durP1;ratioP1;P1;durP2;ratioP2;P2;SDS_P1;SDS_P2;PMS_P1;PMS_P2;Temp;Humidity;BMP_temperature;BMP_pressure;BME280_temperature;BME280_humidity;BME280_pressure;Samples;Min_cycle;Max_cycle;Signal;HPM_P1;HPM_P2
2022/04/16 00:01:15;;;;;;;;;;;19.50;58.10;;;;;;5042125;28;20453;-53
2022/04/16 00:03:41;;;;;;;;;;;19.50;58.00;;;;;;5042964;28;19917;-51
2022/04/16 00:06:07;;;;;;;;;;;19.50;58.00;;;;;;5041922;28;19970;-51
2022/04/16 00:08:32;;;;;;;;;;;19.50;58.00;;;;;;5041310;28;19921;-53
2022/04/16 00:10:57;;;;;;;;;;;19.50;58.00;;;;;;5042518;28;20110;-51
2022/04/16 00:13:23;;;;;;;;;;;19.40;58.00;;;;;;5043053;28;20566;-51
2022/04/16 00:15:52;;;;;;;;;;;19.50;58.00;;;;;;5042402;28;19916;-51
2022/04/16 00:18:18;;;;;;;;;;;19.40;58.00;;;;;;5041192;28;19913;-56
2022/04/16 00:20:44;;;;;;;;;;;19.40;58.00;;;;;;5042048;28;19939;-55
2022/04/16 00:23:10;;;;;;;;;;;19.40;58.00;;;;;;5042831;28;19917;-51
2022/04/16 00:25:35;;;;;;;;;;;19.40;57.90;;;;;;5042642;28;19917;-51
2022/04/16 00:28:01;;;;;;;;;;;19.40;57.90;;;;;;5042444;28;19960;-52
2022/04/16 00:30:27;;;;;;;;;;;19.40;58.00;;;;;;5039381;28;20006;-50
2022/04/16 00:32:54;;;;;;;;;;;19.40;58.00;;;;;;5042575;28;20386;-52
2022/04/16 00:35:20;;;;;;;;;;;19.40;57.90;;;;;;5044967;28;19947;-52
2022/04/16 00:37:45;;;;;;;;;;;19.40;57.90;;;;;;5049297;28;19913;-52
2022/04/16 00:40:11;;;;;;;;;;;19.40;57.90;;;;;;5047794;28;20594;-53
2022/04/16 00:42:37;;;;;;;;;;;19.40;57.90;;;;;;5048651;28;19939;-52
2022/04/16 00:45:03;;;;;;;;;;;19.40;57.90;;;;;;5046848;28;20390;-51
2022/04/16 00:47:28;;;;;;;;;;;19.40;57.90;;;;;;5048928;28;19921;-51
2022/04/16 00:49:54;;;;;;;;;;;19.40;58.00;;;;;;5047592;28;20369;-52
2022/04/16 00:52:21;;;;;;;;;;;19.40;57.90;;;;;;5047292;28;20309;-55
2022/04/16 00:54:46;;;;;;;;;;;19.40;57.90;;;;;;5047583;28;19967;-51
2022/04/16 00:57:12;;;;;;;;;;;19.40;57.90;;;;;;5047873;28;19912;-51
2022/04/16 00:59:37;;;;;;;;;;;19.40;57.90;;;;;;5047760;28;19921;-52
2022/04/16 01:02:03;;;;;;;;;;;19.30;57.80;;;;;;5047238;28;19917;-51
2022/04/16 01:04:28;;;;;;;;;;;19.40;57.90;;;;;;5048067;28;19978;-51
2022/04/16 01:06:54;;;;;;;;;;;19.40;57.90;;;;;;5048053;28;19995;-50
2022/04/16 01:09:19;;;;;;;;;;;19.30;57.80;;;;;;5047432;28;19913;-52
2022/04/16 01:11:44;;;;;;;;;;;19.30;57.80;;;;;;5049183;28;19927;-51
2022/04/16 01:14:10;;;;;;;;;;;19.30;57.80;;;;;;5048670;28;19917;-50
2022/04/16 01:16:35;;;;;;;;;;;19.40;57.90;;;;;;5048745;28;19952;-52
2022/04/16 01:19:01;;;;;;;;;;;19.30;57.80;;;;;;5046659;28;19913;-52
2022/04/16 01:21:27;;;;;;;;;;;19.40;57.90;;;;;;5048587;28;19913;-52
2022/04/16 01:23:52;;;;;;;;;;;19.30;57.80;;;;;;5048214;28;20629;-51
2022/04/16 01:26:18;;;;;;;;;;;19.30;57.80;;;;;;5049571;28;20387;-53
2022/04/16 01:28:43;;;;;;;;;;;19.30;57.80;;;;;;5042652;28;20354;-51
2022/04/16 01:31:09;;;;;;;;;;;19.30;57.80;;;;;;5048343;28;19924;-53
2022/04/16 01:33:34;;;;;;;;;;;19.30;57.80;;;;;;5059258;28;19917;-51
2022/04/16 01:36:00;;;;;;;;;;;19.30;57.80;;;;;;5049209;28;20461;-52
2022/04/16 01:38:25;;;;;;;;;;;19.30;57.80;;;;;;5047155;28;19948;-53
2022/04/16 01:40:57;;;;;;;;;;;19.30;57.80;;;;;;5047876;28;19923;-52
2022/04/16 01:43:22;;;;;;;;;;;19.30;57.80;;;;;;5048462;28;20000;-53
2022/04/16 01:45:49;;;;;;;;;;;19.30;57.80;;;;;;5045147;28;20003;-52
2022/04/16 01:48:19;;;;;;;;;;;19.30;57.80;;;;;;5025923;28;19963;-51
2022/04/16 01:50:48;;;;;;;;;;;19.30;57.80;;;;;;5041705;28;19917;-49
2022/04/16 01:53:14;;;;;;;;;;;19.30;57.80;;;;;;5035290;28;19921;-53
2022/04/16 01:55:39;;;;;;;;;;;19.30;57.70;;;;;;5043126;28;19913;-52
2022/04/16 01:58:05;;;;;;;;;;;19.30;57.70;;;;;;5039670;28;19917;-51
2022/04/16 02:00:31;;;;;;;;;;;19.20;57.60;;;;;;5042034;28;20657;-51
2022/04/16 02:02:57;;;;;;;;;;;19.20;57.70;;;;;;5038913;28;19952;-53
2022/04/16 02:05:22;;;;;;;;;;;19.20;57.70;;;;;;5043181;28;19939;-53
2022/04/16 02:07:49;;;;;;;;;;;19.20;57.70;;;;;;5039736;28;19921;-52
2022/04/16 02:10:16;;;;;;;;;;;19.20;57.60;;;;;;5043109;28;20353;-52
2022/04/16 02:12:42;;;;;;;;;;;19.20;57.70;;;;;;5040122;28;19927;-52
2022/04/16 02:15:07;;;;;;;;;;;19.20;57.60;;;;;;5044174;28;19913;-53
2022/04/16 02:17:33;;;;;;;;;;;19.20;57.60;;;;;;5039933;28;19959;-50
2022/04/16 02:19:58;;;;;;;;;;;19.20;57.60;;;;;;5042241;28;19920;-54
2022/04/16 02:22:24;;;;;;;;;;;19.20;57.70;;;;;;5039744;28;19980;-53
2022/04/16 02:24:49;;;;;;;;;;;19.20;57.70;;;;;;5043455;28;19917;-50
2022/04/16 02:27:15;;;;;;;;;;;19.20;57.70;;;;;;5041188;28;20427;-52
2022/04/16 02:29:40;;;;;;;;;;;19.20;57.70;;;;;;5042867;28;20297;-52
2022/04/16 02:32:06;;;;;;;;;;;19.20;57.60;;;;;;5039714;28;19921;-53
2022/04/16 02:34:31;;;;;;;;;;;19.20;57.60;;;;;;5043952;28;19912;-51
2022/04/16 02:36:58;;;;;;;;;;;19.10;57.60;;;;;;5044125;28;19923;-51
2022/04/16 02:39:23;;;;;;;;;;;19.20;57.60;;;;;;5037883;28;19917;-52
2022/04/16 02:41:49;;;;;;;;;;;19.20;57.70;;;;;;5044630;28;20636;-52
2022/04/16 02:47:08;;;;;;;;;;;19.20;57.60;;;;;;5043711;28;19920;-53
2022/04/16 02:49:34;;;;;;;;;;;19.10;57.50;;;;;;5040902;28;20193;-51
2022/04/16 02:51:59;;;;;;;;;;;19.10;57.60;;;;;;5043967;28;19947;-52
2022/04/16 02:54:25;;;;;;;;;;;19.10;57.60;;;;;;5034722;28;20308;-52
2022/04/16 02:56:51;;;;;;;;;;;19.10;57.50;;;;;;5042034;28;19943;-52
2022/04/16 02:59:16;;;;;;;;;;;19.10;57.60;;;;;;5033230;28;19939;-52
2022/04/16 03:01:41;;;;;;;;;;;19.10;57.60;;;;;;5042970;28;19992;-53
2022/04/16 03:04:07;;;;;;;;;;;19.10;57.60;;;;;;5032596;28;20325;-54
2022/04/16 03:06:32;;;;;;;;;;;19.10;57.60;;;;;;5043698;28;20169;-52
2022/04/16 03:08:58;;;;;;;;;;;19.10;57.50;;;;;;5036169;28;19919;-50
2022/04/16 03:11:23;;;;;;;;;;;19.10;57.60;;;;;;5042960;28;20002;-51
2022/04/16 03:13:49;;;;;;;;;;;19.10;57.60;;;;;;5036233;28;20639;-51
2022/04/16 03:18:58;;;;;;;;;;;19.10;57.60;;;;;;5026427;28;19988;-51
2022/04/16 03:21:23;;;;;;;;;;;19.10;57.60;;;;;;5042064;28;19912;-52
2022/04/16 03:23:49;;;;;;;;;;;19.00;57.50;;;;;;5036507;28;19927;-50
2022/04/16 03:26:15;;;;;;;;;;;19.00;57.50;;;;;;5042894;28;19913;-50
2022/04/16 03:28:41;;;;;;;;;;;19.10;57.50;;;;;;5033816;28;20577;-50
2022/04/16 03:31:06;;;;;;;;;;;19.00;57.50;;;;;;5023724;28;20275;-51
2022/04/16 03:33:32;;;;;;;;;;;19.10;57.50;;;;;;5023774;28;19928;-51
2022/04/16 03:35:57;;;;;;;;;;;19.00;57.50;;;;;;5027457;28;19913;-50
2022/04/16 03:38:23;;;;;;;;;;;19.00;57.50;;;;;;5013702;28;19917;-51
2022/04/16 03:40:48;;;;;;;;;;;19.00;57.50;;;;;;5029323;28;20400;-54
2022/04/16 03:43:14;;;;;;;;;;;19.00;57.50;;;;;;5034027;28;19925;-53
2022/04/16 03:45:40;;;;;;;;;;;19.00;57.50;;;;;;5041556;28;19971;-52
2022/04/16 03:48:05;;;;;;;;;;;19.00;57.50;;;;;;5035001;28;20338;-53
2022/04/16 03:50:31;;;;;;;;;;;19.00;57.50;;;;;;5053974;28;19924;-52
2022/04/16 03:52:57;;;;;;;;;;;19.00;57.40;;;;;;5036381;28;19971;-51
2022/04/16 04:00:52;;;;;;;;;;;19.00;57.40;;;;;;5042584;28;20026;-53
2022/04/16 04:03:17;;;;;;;;;;;19.00;57.50;;;;;;5034455;28;20386;-51
2022/04/16 04:05:43;;;;;;;;;;;19.00;57.50;;;;;;5037943;28;20553;-52
2022/04/16 04:08:09;;;;;;;;;;;19.00;57.40;;;;;;5035499;28;19924;-51
2022/04/16 04:10:35;;;;;;;;;;;19.00;57.50;;;;;;5057207;28;20299;-52
2022/04/16 04:13:00;;;;;;;;;;;19.00;57.40;;;;;;5032428;28;19928;-52
2022/04/16 04:15:27;;;;;;;;;;;18.90;57.40;;;;;;5039910;28;20331;-52
2022/04/16 04:17:52;;;;;;;;;;;19.00;57.40;;;;;;5014322;28;19923;-53
2022/04/16 04:20:18;;;;;;;;;;;19.00;57.40;;;;;;5018947;28;20016;-54
2022/04/16 04:22:44;;;;;;;;;;;18.90;57.40;;;;;;5029546;28;19923;-51
2022/04/16 04:25:09;;;;;;;;;;;18.90;57.30;;;;;;5041425;28;20055;-52
2022/04/16 04:27:35;;;;;;;;;;;18.90;57.30;;;;;;5016954;28;19919;-55
2022/04/16 04:30:03;;;;;;;;;;;18.90;57.30;;;;;;5020269;28;19924;-51
2022/04/16 04:32:29;;;;;;;;;;;18.90;57.40;;;;;;5036987;28;20399;-52
2022/04/16 04:34:54;;;;;;;;;;;18.90;57.40;;;;;;5041870;28;19923;-55
2022/04/16 04:37:19;;;;;;;;;;;18.90;57.30;;;;;;5028406;28;19917;-51
2022/04/16 04:39:45;;;;;;;;;;;18.90;57.40;;;;;;5020614;28;20740;-51
2022/04/16 04:42:10;;;;;;;;;;;18.90;57.40;;;;;;5031446;28;19924;-52
2022/04/16 04:44:36;;;;;;;;;;;18.90;57.30;;;;;;5041960;28;19917;-50
2022/04/16 04:47:01;;;;;;;;;;;18.90;57.30;;;;;;5030446;28;19924;-51
2022/04/16 04:49:27;;;;;;;;;;;18.90;57.40;;;;;;5021288;28;19917;-51
2022/04/16 04:51:52;;;;;;;;;;;18.90;57.40;;;;;;5030166;28;20607;-54
2022/04/16 04:54:18;;;;;;;;;;;18.80;57.30;;;;;;5041086;28;19917;-52
2022/04/16 04:56:43;;;;;;;;;;;18.80;57.30;;;;;;5040081;28;20429;-56
2022/04/16 04:59:09;;;;;;;;;;;18.90;57.30;;;;;;5039737;28;19920;-54
2022/04/16 05:01:34;;;;;;;;;;;18.90;57.30;;;;;;5038269;28;19913;-52
2022/04/16 05:04:00;;;;;;;;;;;18.80;57.30;;;;;;5021897;28;20321;-51
2022/04/16 05:06:25;;;;;;;;;;;18.80;57.30;;;;;;5024209;28;19932;-52
2022/04/16 05:08:51;;;;;;;;;;;18.80;57.30;;;;;;5040262;28;20378;-53
2022/04/16 05:11:16;;;;;;;;;;;18.80;57.30;;;;;;5040255;28;20379;-52
2022/04/16 05:13:42;;;;;;;;;;;18.80;57.30;;;;;;5026422;28;19913;-52
2022/04/16 05:16:07;;;;;;;;;;;18.80;57.50;;;;;;5041643;28;20381;-51
2022/04/16 05:18:33;;;;;;;;;;;18.80;57.30;;;;;;5040181;28;19963;-52
2022/04/16 05:20:58;;;;;;;;;;;18.80;57.30;;;;;;5043095;28;20303;-51
2022/04/16 05:23:24;;;;;;;;;;;18.80;57.20;;;;;;5029636;28;19917;-52
2022/04/16 05:25:50;;;;;;;;;;;18.80;57.20;;;;;;5025717;28;19921;-51
2022/04/16 05:28:16;;;;;;;;;;;18.80;57.30;;;;;;5040315;28;19913;-52
2022/04/16 05:30:54;;;;;;;;;;;18.80;57.30;;;;;;5042558;28;20306;-51
2022/04/16 05:36:04;;;;;;;;;;;18.80;57.20;;;;;;5046351;28;19920;-52
2022/04/16 05:38:30;;;;;;;;;;;18.80;57.30;;;;;;5017793;28;19917;-52
2022/04/16 05:40:55;;;;;;;;;;;18.80;57.20;;;;;;5005540;28;19914;-52
2022/04/16 05:43:20;;;;;;;;;;;18.80;57.30;;;;;;5036938;28;20388;-52
2022/04/16 05:45:46;;;;;;;;;;;18.80;57.20;;;;;;5045177;28;19939;-55
2022/04/16 05:48:11;;;;;;;;;;;18.80;57.20;;;;;;5044669;28;19917;-53
2022/04/16 05:50:37;;;;;;;;;;;18.80;57.20;;;;;;5043200;28;19916;-56
2022/04/16 05:53:05;;;;;;;;;;;18.70;57.40;;;;;;5045808;28;20385;-51
2022/04/16 05:55:31;;;;;;;;;;;18.70;57.20;;;;;;5042679;28;20356;-51
2022/04/16 05:57:56;;;;;;;;;;;18.70;57.20;;;;;;5044716;28;19920;-53
2022/04/16 06:00:22;;;;;;;;;;;18.70;57.10;;;;;;5043053;28;19913;-54
2022/04/16 06:02:47;;;;;;;;;;;18.70;57.10;;;;;;5045225;28;19917;-51
2022/04/16 06:05:13;;;;;;;;;;;18.70;57.10;;;;;;5045640;28;19923;-53
2022/04/16 06:07:38;;;;;;;;;;;18.70;57.10;;;;;;5045457;28;19952;-52
2022/04/16 06:10:04;;;;;;;;;;;18.70;57.20;;;;;;5042400;28;19919;-51
2022/04/16 06:12:29;;;;;;;;;;;18.70;57.20;;;;;;5039200;28;19921;-51
2022/04/16 06:14:55;;;;;;;;;;;18.70;57.20;;;;;;5043626;28;19917;-55
2022/04/16 06:17:20;;;;;;;;;;;18.70;57.10;;;;;;5022906;28;19916;-53
2022/04/16 06:19:46;;;;;;;;;;;18.70;57.20;;;;;;5040460;28;21409;-54
2022/04/16 06:22:11;;;;;;;;;;;18.70;57.20;;;;;;5034771;28;19913;-57
2022/04/16 06:24:41;;;;;;;;;;;18.70;57.20;;;;;;5026059;28;19914;-51
2022/04/16 06:27:06;;;;;;;;;;;18.70;57.20;;;;;;5043167;28;19935;-50
2022/04/16 06:29:32;;;;;;;;;;;18.70;57.20;;;;;;5029055;28;19917;-51
2022/04/16 06:31:57;;;;;;;;;;;18.70;57.30;;;;;;5043615;28;19920;-53
2022/04/16 06:34:24;;;;;;;;;;;18.70;57.30;;;;;;5044389;28;19925;-49
2022/04/16 06:36:49;;;;;;;;;;;18.70;57.40;;;;;;5044702;28;19921;-55
2022/04/16 06:39:15;;;;;;;;;;;18.80;58.40;;;;;;5043561;28;19963;-52
2022/04/16 06:41:40;;;;;;;;;;;18.90;57.90;;;;;;5044911;28;20378;-53
2022/04/16 06:44:06;;;;;;;;;;;18.80;57.50;;;;;;5045001;28;20026;-52
2022/04/16 06:46:32;;;;;;;;;;;18.80;57.60;;;;;;5044971;28;20478;-51
2022/04/16 06:48:57;;;;;;;;;;;18.70;57.60;;;;;;5042247;28;19917;-51
2022/04/16 06:51:23;;;;;;;;;;;18.70;57.70;;;;;;5043149;28;19999;-50
2022/04/16 06:53:48;;;;;;;;;;;18.70;57.80;;;;;;5042245;28;19928;-52
2022/04/16 06:56:14;;;;;;;;;;;18.70;57.80;;;;;;5041942;28;20398;-54
2022/04/16 06:58:39;;;;;;;;;;;18.70;57.80;;;;;;5017356;28;19920;-52
2022/04/16 07:01:05;;;;;;;;;;;18.60;57.70;;;;;;5041255;28;20386;-55
2022/04/16 07:03:30;;;;;;;;;;;18.70;57.80;;;;;;5045225;28;19928;-54
2022/04/16 07:05:56;;;;;;;;;;;18.60;57.70;;;;;;5049801;28;19982;-50
2022/04/16 07:08:21;;;;;;;;;;;18.70;57.80;;;;;;5037605;28;19921;-55
2022/04/16 07:10:46;;;;;;;;;;;18.70;57.80;;;;;;5043509;28;20370;-53
2022/04/16 07:13:12;;;;;;;;;;;18.70;57.70;;;;;;5037702;28;20002;-53
2022/04/16 07:15:38;;;;;;;;;;;18.70;57.70;;;;;;5044229;28;19920;-55
2022/04/16 07:18:04;;;;;;;;;;;18.70;57.70;;;;;;5038240;28;19920;-54
2022/04/16 07:20:29;;;;;;;;;;;18.60;57.70;;;;;;5043374;28;19958;-52
2022/04/16 07:22:55;;;;;;;;;;;18.60;57.70;;;;;;5038530;28;19912;-50
2022/04/16 07:25:21;;;;;;;;;;;18.60;57.60;;;;;;5044597;28;19975;-52
2022/04/16 07:27:47;;;;;;;;;;;18.60;57.60;;;;;;5037136;28;19913;-52
2022/04/16 07:30:13;;;;;;;;;;;18.60;57.70;;;;;;5047560;28;20378;-51
2022/04/16 07:32:39;;;;;;;;;;;18.60;57.60;;;;;;5038746;28;19944;-52
2022/04/16 07:35:04;;;;;;;;;;;18.60;57.60;;;;;;5044149;28;19913;-51
2022/04/16 07:37:30;;;;;;;;;;;18.60;58.20;;;;;;5034890;28;19913;-54
2022/04/16 07:39:55;;;;;;;;;;;18.60;57.50;;;;;;5044294;28;19917;-49
2022/04/16 07:42:21;;;;;;;;;;;18.60;57.50;;;;;;5044145;28;19979;-50
2022/04/16 07:44:46;;;;;;;;;;;18.60;57.50;;;;;;5042984;28;19924;-51
2022/04/16 07:47:12;;;;;;;;;;;18.60;57.50;;;;;;5044018;28;19948;-50
2022/04/16 07:49:37;;;;;;;;;;;18.60;57.50;;;;;;5042533;28;20366;-50
2022/04/16 07:52:03;;;;;;;;;;;18.60;57.50;;;;;;5041777;28;19917;-54
2022/04/16 07:54:28;;;;;;;;;;;18.60;57.50;;;;;;5044017;28;20012;-50
2022/04/16 07:56:54;;;;;;;;;;;18.60;57.50;;;;;;5043616;28;19923;-50
2022/04/16 07:59:19;;;;;;;;;;;18.60;57.50;;;;;;5042241;28;19917;-50
2022/04/16 08:01:44;;;;;;;;;;;18.60;57.60;;;;;;5041601;28;19913;-53
2022/04/16 08:04:10;;;;;;;;;;;18.60;57.60;;;;;;5043088;28;20286;-55
2022/04/16 08:06:35;;;;;;;;;;;18.60;57.60;;;;;;5042214;28;19935;-52
2022/04/16 08:09:01;;;;;;;;;;;18.60;57.60;;;;;;5039692;28;19917;-53
2022/04/16 08:11:30;;;;;;;;;;;18.60;57.60;;;;;;5042841;28;19921;-54
2022/04/16 08:13:55;;;;;;;;;;;18.60;57.60;;;;;;5042035;28;19913;-52
2022/04/16 08:16:20;;;;;;;;;;;18.60;57.60;;;;;;5041834;28;19920;-51
2022/04/16 08:18:46;;;;;;;;;;;18.60;57.60;;;;;;5040726;28;19917;-52
2022/04/16 08:21:11;;;;;;;;;;;18.50;57.60;;;;;;5042447;28;20370;-52
2022/04/16 08:23:43;;;;;;;;;;;18.60;57.70;;;;;;5042070;28;19936;-51
2022/04/16 08:26:10;;;;;;;;;;;18.60;57.70;;;;;;5042819;28;19921;-52
2022/04/16 08:28:35;;;;;;;;;;;18.60;57.70;;;;;;5041486;28;20047;-55
2022/04/16 08:31:01;;;;;;;;;;;18.60;57.70;;;;;;5041717;28;19920;-50
2022/04/16 08:33:26;;;;;;;;;;;18.60;57.60;;;;;;5038295;28;19921;-52
2022/04/16 08:35:52;;;;;;;;;;;18.60;57.60;;;;;;5041214;28;19916;-51
2022/04/16 08:38:17;;;;;;;;;;;18.60;57.60;;;;;;5040988;28;19913;-52
2022/04/16 08:40:43;;;;;;;;;;;18.60;57.70;;;;;;5041652;28;20603;-51
2022/04/16 08:43:09;;;;;;;;;;;18.60;57.60;;;;;;5055984;28;19919;-56
2022/04/16 08:45:35;;;;;;;;;;;18.60;57.60;;;;;;5054826;28;20576;-51
2022/04/16 08:48:00;;;;;;;;;;;18.60;57.60;;;;;;5041596;28;19940;-50
2022/04/16 08:50:26;;;;;;;;;;;18.60;57.60;;;;;;5039877;28;19966;-51
2022/04/16 08:52:51;;;;;;;;;;;18.60;57.60;;;;;;5040250;28;20560;-50
2022/04/16 08:55:17;;;;;;;;;;;18.60;57.60;;;;;;5038948;28;20418;-52
2022/04/16 08:57:42;;;;;;;;;;;18.60;58.20;;;;;;5025749;28;19917;-52
2022/04/16 09:00:08;;;;;;;;;;;18.60;57.60;;;;;;5027882;28;19924;-51
2022/04/16 09:02:33;;;;;;;;;;;18.60;57.60;;;;;;5045789;28;20326;-50
2022/04/16 09:05:09;;;;;;;;;;;18.60;57.70;;;;;;5045875;28;19920;-50
2022/04/16 09:07:47;;;;;;;;;;;18.60;57.70;;;;;;5035435;22;19979;-51
2022/04/16 09:10:12;;;;;;;;;;;18.60;57.70;;;;;;5023701;28;19979;-50
2022/04/16 09:12:38;;;;;;;;;;;18.60;57.70;;;;;;4986070;28;19922;-50
2022/04/16 09:15:07;;;;;;;;;;;18.60;57.70;;;;;;4986751;28;19924;-52
2022/04/16 09:17:32;;;;;;;;;;;18.60;57.70;;;;;;4988512;28;19918;-55
2022/04/16 09:19:58;;;;;;;;;;;18.50;57.60;;;;;;4985455;28;19989;-53
2022/04/16 09:22:33;;;;;;;;;;;18.60;57.70;;;;;;4986529;28;20290;-51
2022/04/16 09:24:58;;;;;;;;;;;18.60;57.70;;;;;;4986665;28;20319;-52
2022/04/16 09:27:24;;;;;;;;;;;18.60;57.60;;;;;;4970497;28;19965;-52
2022/04/16 09:29:50;;;;;;;;;;;18.60;57.60;;;;;;4965795;28;20013;-52
2022/04/16 09:32:24;;;;;;;;;;;18.60;57.60;;;;;;4995054;28;19997;-50
2022/04/16 09:34:53;;;;;;;;;;;18.60;57.60;;;;;;4985510;28;19929;-53
2022/04/16 09:37:18;;;;;;;;;;;18.60;57.50;;;;;;4990995;28;19957;-50
2022/04/16 09:39:43;;;;;;;;;;;18.60;57.40;;;;;;4984188;28;19949;-51
2022/04/16 09:42:09;;;;;;;;;;;18.50;57.30;;;;;;4983953;28;20518;-50
2022/04/16 09:44:34;;;;;;;;;;;18.50;57.30;;;;;;4984876;28;21375;-53
2022/04/16 09:47:00;;;;;;;;;;;18.50;57.30;;;;;;4985447;28;19917;-54
2022/04/16 09:49:25;;;;;;;;;;;18.60;57.30;;;;;;4983490;28;19914;-52
2022/04/16 09:51:51;;;;;;;;;;;18.60;57.30;;;;;;4978467;28;19945;-52
2022/04/16 09:54:16;;;;;;;;;;;18.50;57.20;;;;;;4966478;28;19919;-50
2022/04/16 09:56:45;;;;;;;;;;;18.60;57.10;;;;;;4972923;28;19967;-51
2022/04/16 09:59:12;;;;;;;;;;;18.60;57.00;;;;;;4984553;28;19918;-51
2022/04/16 10:01:38;;;;;;;;;;;18.60;57.10;;;;;;4980244;28;19914;-52
2022/04/16 10:04:05;;;;;;;;;;;18.60;57.20;;;;;;4967533;28;20500;-51
2022/04/16 10:06:31;;;;;;;;;;;18.60;57.30;;;;;;4983468;28;19984;-49
2022/04/16 10:08:57;;;;;;;;;;;18.60;57.30;;;;;;4982567;28;19922;-50
2022/04/16 10:14:19;;;;;;;;;;;18.50;57.20;;;;;;4998244;28;19920;-53
2022/04/16 10:16:51;;;;;;;;;;;18.50;57.20;;;;;;4995918;28;19957;-52
2022/04/16 10:19:16;;;;;;;;;;;18.50;57.10;;;;;;4963903;28;21168;-54
2022/04/16 10:21:42;;;;;;;;;;;18.60;57.10;;;;;;4968608;28;19918;-55
2022/04/16 10:24:07;;;;;;;;;;;18.50;57.00;;;;;;4984124;28;19924;-49
2022/04/16 10:26:39;;;;;;;;;;;18.60;56.90;;;;;;4984240;28;19952;-53
2022/04/16 10:29:05;;;;;;;;;;;18.60;56.90;;;;;;4964690;28;19940;-51
2022/04/16 10:31:32;;;;;;;;;;;18.60;56.90;;;;;;4963129;28;19922;-52
2022/04/16 10:34:03;;;;;;;;;;;18.60;56.90;;;;;;5013463;23;19935;-54
2022/04/16 10:36:32;;;;;;;;;;;18.50;56.80;;;;;;5031733;28;19917;-50
2022/04/16 10:38:58;;;;;;;;;;;18.50;56.80;;;;;;5022563;28;20008;-53
2022/04/16 10:41:24;;;;;;;;;;;18.50;56.80;;;;;;5024725;28;20060;-50
2022/04/16 10:43:55;;;;;;;;;;;18.50;56.90;;;;;;5023257;28;19921;-51
2022/04/16 10:46:21;;;;;;;;;;;18.50;57.00;;;;;;5023271;28;19917;-54
2022/04/16 10:48:46;;;;;;;;;;;18.50;56.90;;;;;;5014624;28;19944;-57
2022/04/16 10:51:12;;;;;;;;;;;18.50;56.80;;;;;;5003337;28;20385;-54
2022/04/16 10:53:37;;;;;;;;;;;18.50;56.80;;;;;;5018668;28;19948;-49
2022/04/16 10:56:21;;;;;;;;;;;18.50;56.70;;;;;;5023732;28;19967;-51
2022/04/16 10:58:59;;;;;;;;;;;18.50;56.90;;;;;;5018915;28;20357;-50
2022/04/16 11:01:24;;;;;;;;;;;18.50;56.90;;;;;;5023078;28;20400;-52
2022/04/16 11:03:50;;;;;;;;;;;18.50;57.00;;;;;;5023850;28;19913;-53
2022/04/16 11:06:16;;;;;;;;;;;18.50;57.00;;;;;;5018839;28;20016;-50
2022/04/16 11:08:41;;;;;;;;;;;18.50;57.00;;;;;;5033118;28;20688;-53
2022/04/16 11:11:07;;;;;;;;;;;18.50;56.90;;;;;;5043517;28;20331;-53
2022/04/16 11:13:36;;;;;;;;;;;18.50;56.80;;;;;;5041606;28;19916;-49
2022/04/16 11:16:02;;;;;;;;;;;18.50;56.70;;;;;;5042737;28;19920;-52
2022/04/16 11:18:43;;;;;;;;;;;18.50;56.80;;;;;;5036453;28;19917;-50
2022/04/16 11:21:09;;;;;;;;;;;18.50;56.80;;;;;;5023148;28;19967;-49
2022/04/16 11:23:41;;;;;;;;;;;18.50;56.80;;;;;;5023286;28;19921;-52
2022/04/16 11:34:42;;;;;;;;;;;18.50;56.90;;;;;;5034193;28;20336;-51
2022/04/16 11:37:08;;;;;;;;;;;18.50;56.90;;;;;;5041817;28;19921;-55
2022/04/16 11:39:34;;;;;;;;;;;18.50;56.90;;;;;;5025961;28;20329;-53
2022/04/16 11:42:02;;;;;;;;;;;18.50;56.80;;;;;;5022138;28;19948;-50
2022/04/16 11:44:41;;;;;;;;;;;18.50;56.90;;;;;;5022106;28;19987;-50
2022/04/16 11:47:09;;;;;;;;;;;18.50;56.90;;;;;;5022308;28;20021;-50
2022/04/16 11:49:37;;;;;;;;;;;18.40;56.80;;;;;;5020971;28;21361;-52
2022/04/16 11:52:03;;;;;;;;;;;18.50;56.80;;;;;;5023551;28;19928;-51
2022/04/16 11:54:28;;;;;;;;;;;18.50;56.90;;;;;;5025641;28;20588;-50
2022/04/16 11:56:57;;;;;;;;;;;18.50;56.80;;;;;;5041609;28;19921;-55
2022/04/16 11:59:24;;;;;;;;;;;18.50;56.90;;;;;;5039982;28;20312;-54
2022/04/16 12:01:56;;;;;;;;;;;18.50;56.90;;;;;;5041908;28;19917;-53
2022/04/16 12:04:31;;;;;;;;;;;18.50;56.90;;;;;;5041674;28;20401;-53
2022/04/16 12:06:57;;;;;;;;;;;18.50;56.90;;;;;;5042042;28;19913;-48
2022/04/16 12:09:22;;;;;;;;;;;18.50;56.90;;;;;;5040908;28;19924;-54
2022/04/16 12:11:48;;;;;;;;;;;18.50;56.90;;;;;;5041365;28;19916;-50
2022/04/16 12:14:17;;;;;;;;;;;18.50;56.90;;;;;;5041379;28;19920;-52
2022/04/16 12:16:42;;;;;;;;;;;18.40;56.80;;;;;;5042418;28;20774;-51
2022/04/16 12:19:07;;;;;;;;;;;18.50;56.80;;;;;;5041186;28;20621;-51
2022/04/16 12:21:33;;;;;;;;;;;18.40;56.70;;;;;;5041066;28;19952;-53
2022/04/16 12:24:03;;;;;;;;;;;18.40;56.80;;;;;;5040384;28;19913;-49
2022/04/16 12:26:29;;;;;;;;;;;18.40;56.80;;;;;;5041819;28;20432;-52
2022/04/16 12:28:56;;;;;;;;;;;18.40;56.80;;;;;;5041056;28;19916;-53
2022/04/16 12:31:25;;;;;;;;;;;18.40;56.90;;;;;;5042034;28;20427;-52
2022/04/16 12:33:50;;;;;;;;;;;18.40;56.90;;;;;;5041961;28;19931;-52
2022/04/16 12:36:16;;;;;;;;;;;18.40;56.80;;;;;;5042584;28;19917;-50
2022/04/16 12:38:41;;;;;;;;;;;18.40;56.80;;;;;;5041044;28;20240;-52
2022/04/16 12:41:08;;;;;;;;;;;18.40;56.80;;;;;;5041503;28;19928;-50
2022/04/16 12:43:34;;;;;;;;;;;18.40;56.70;;;;;;5041867;28;19974;-54
2022/04/16 12:45:59;;;;;;;;;;;18.40;56.70;;;;;;5041934;28;20385;-51
2022/04/16 12:48:25;;;;;;;;;;;18.40;56.60;;;;;;5041564;28;19921;-53
2022/04/16 12:50:50;;;;;;;;;;;18.40;56.70;;;;;;5041758;28;20326;-51
2022/04/16 12:53:15;;;;;;;;;;;18.40;56.60;;;;;;5042851;28;19927;-52
2022/04/16 12:55:41;;;;;;;;;;;18.40;56.60;;;;;;5041224;28;19960;-50
2022/04/16 12:58:06;;;;;;;;;;;18.40;56.60;;;;;;5042071;28;19921;-52
2022/04/16 13:00:34;;;;;;;;;;;18.40;56.60;;;;;;5040805;28;20075;-55
2022/04/16 13:02:59;;;;;;;;;;;18.40;56.50;;;;;;5042294;28;19952;-53
2022/04/16 13:05:26;;;;;;;;;;;18.40;56.50;;;;;;5041721;28;20374;-54
2022/04/16 13:07:51;;;;;;;;;;;18.40;56.50;;;;;;5042095;28;19931;-53
2022/04/16 13:10:17;;;;;;;;;;;18.40;56.50;;;;;;5040010;28;19945;-53
2022/04/16 13:12:42;;;;;;;;;;;18.40;56.50;;;;;;5040510;28;19920;-50
2022/04/16 13:15:08;;;;;;;;;;;18.40;56.50;;;;;;5045417;28;20012;-51
2022/04/16 13:17:34;;;;;;;;;;;18.40;56.50;;;;;;5059381;28;19936;-52
2022/04/16 13:20:02;;;;;;;;;;;18.40;56.40;;;;;;5054465;28;19924;-51
2022/04/16 13:22:28;;;;;;;;;;;18.40;56.50;;;;;;5041831;28;19924;-52
2022/04/16 13:24:53;;;;;;;;;;;18.40;56.30;;;;;;5041302;28;19917;-53
2022/04/16 13:27:19;;;;;;;;;;;18.40;56.40;;;;;;5041714;28;20047;-54
2022/04/16 13:29:44;;;;;;;;;;;18.40;56.40;;;;;;5041139;28;19917;-53
2022/04/16 13:32:10;;;;;;;;;;;18.40;56.30;;;;;;5042266;28;19964;-52
2022/04/16 13:34:36;;;;;;;;;;;18.40;56.30;;;;;;5040184;28;20297;-51
2022/04/16 13:37:01;;;;;;;;;;;18.40;56.30;;;;;;5042119;28;19913;-53
2022/04/16 13:42:11;;;;;;;;;;;18.40;56.30;;;;;;5038612;28;20067;-49
2022/04/16 13:44:36;;;;;;;;;;;18.40;56.30;;;;;;5053773;28;20305;-54
2022/04/16 13:47:02;;;;;;;;;;;18.40;56.30;;;;;;5045076;28;19963;-53
2022/04/16 13:49:28;;;;;;;;;;;18.40;56.30;;;;;;5045068;28;19919;-49
2022/04/16 13:51:53;;;;;;;;;;;18.40;56.30;;;;;;5031902;28;19921;-53
2022/04/16 13:54:19;;;;;;;;;;;18.40;56.90;;;;;;5024603;28;19921;-52
2022/04/16 13:56:44;;;;;;;;;;;18.40;56.30;;;;;;5035091;28;20511;-51
2022/04/16 13:59:10;;;;;;;;;;;18.40;56.30;;;;;;5043438;28;19941;-52
2022/04/16 14:01:35;;;;;;;;;;;18.40;56.20;;;;;;5030926;28;19959;-53
2022/04/16 14:04:01;;;;;;;;;;;18.40;56.30;;;;;;5024518;28;19917;-52
2022/04/16 14:06:29;;;;;;;;;;;18.40;56.30;;;;;;5042493;28;19920;-52
2022/04/16 14:08:55;;;;;;;;;;;18.40;56.30;;;;;;5042510;28;19956;-52
2022/04/16 14:11:20;;;;;;;;;;;18.40;56.40;;;;;;5043786;28;20002;-49
2022/04/16 14:13:46;;;;;;;;;;;18.40;56.40;;;;;;5045530;28;19917;-52
2022/04/16 14:16:11;;;;;;;;;;;18.40;56.40;;;;;;5045063;28;19927;-52
2022/04/16 14:18:37;;;;;;;;;;;18.40;56.40;;;;;;5043375;28;19924;-53
2022/04/16 14:21:04;;;;;;;;;;;18.40;56.50;;;;;;5042571;28;20399;-51
2022/04/16 14:23:30;;;;;;;;;;;18.40;56.50;;;;;;5044017;28;19913;-51
2022/04/16 14:25:56;;;;;;;;;;;18.40;56.50;;;;;;5045123;28;20044;-54
2022/04/16 14:28:21;;;;;;;;;;;18.40;56.50;;;;;;5044300;28;20374;-52
2022/04/16 14:30:47;;;;;;;;;;;18.40;56.50;;;;;;5043947;28;19939;-53
2022/04/16 14:33:12;;;;;;;;;;;18.40;56.50;;;;;;5044693;28;19917;-51
2022/04/16 14:35:39;;;;;;;;;;;18.40;56.50;;;;;;5040171;28;19939;-51
2022/04/16 14:38:11;;;;;;;;;;;18.30;56.40;;;;;;5028990;28;19924;-49